sensor_id;sensor_type;location;lat;lon;timestamp;pressure;altitude;pressure_sealevel;temperature;humidity
7832;BME280;3961;42.058;25.586;2024-02-21T00:01:34;101221.84;;;8.56;100.00
7832;BME280;3961;42.058;25.586;2024-02-21T00:03:59;101216.41;;;8.56;100.00
7832;BME280;3961;42.058;25.586;2024-02-21T00:06:25;101217.78;;;8.52;100.00
7832;BME280;3961;42.058;25.586;2024-02-21T00:08:51;101209.44;;;8.54;100.00
7832;BME280;3961;42.058;25.586;2024-02-21T00:11:16;101203.84;;;8.55;100.00
7832;BME280;3961;42.058;25.586;2024-02-21T00:13:42;101217.47;;;8.47;100.00
7832;BME280;3961;42.058;25.586;2024-02-21T00:16:07;101210.28;;;8.54;100.00
7832;BME280;3961;42.058;25.586;2024-02-21T00:18:33;101209.53;;;8.45;100.00
7832;BME280;3961;42.058;25.586;2024-02-21T00:20:58;101219.47;;;8.53;100.00
7832;BME280;3961;42.058;25.586;2024-02-21T00:23:24;101219.88;;;8.42;100.00
7832;BME280;3961;42.058;25.586;2024-02-21T00:25:49;101213.13;;;8.38;100.00
7832;BME280;3961;42.058;25.586;2024-02-21T00:28:15;101212.13;;;8.31;100.00
7832;BME280;3961;42.058;25.586;2024-02-21T00:30:40;101215.91;;;8.30;100.00
7832;BME280;3961;42.058;25.586;2024-02-21T00:33:06;101223.22;;;8.21;100.00
7832;BME280;3961;42.058;25.586;2024-02-21T00:35:31;101220.00;;;8.18;100.00
7832;BME280;3961;42.058;25.586;2024-02-21T00:37:57;101222.66;;;8.26;100.00
7832;BME280;3961;42.058;25.586;2024-02-21T00:40:24;101218.28;;;8.25;100.00
7832;BME280;3961;42.058;25.586;2024-02-21T00:42:50;101224.75;;;8.24;100.00
7832;BME280;3961;42.058;25.586;2024-02-21T00:45:15;101222.72;;;8.18;100.00
7832;BME280;3961;42.058;25.586;2024-02-21T00:47:41;101218.16;;;8.18;100.00
7832;BME280;3961;42.058;25.586;2024-02-21T00:50:07;101213.59;;;8.11;100.00
7832;BME280;3961;42.058;25.586;2024-02-21T00:52:33;101208.78;;;8.21;100.00
7832;BME280;3961;42.058;25.586;2024-02-21T00:54:58;101211.81;;;8.26;100.00
7832;BME280;3961;42.058;25.586;2024-02-21T00:57:24;101196.72;;;8.23;100.00
7832;BME280;3961;42.058;25.586;2024-02-21T00:59:50;101200.94;;;8.26;100.00
7832;BME280;3961;42.058;25.586;2024-02-21T01:02:15;101208.22;;;8.33;100.00
7832;BME280;3961;42.058;25.586;2024-02-21T01:04:41;101169.19;;;8.03;100.00
7832;BME280;3961;42.058;25.586;2024-02-21T01:07:06;101203.31;;;8.29;100.00
7832;BME280;3961;42.058;25.586;2024-02-21T01:09:32;101206.00;;;8.37;100.00
7832;BME280;3961;42.058;25.586;2024-02-21T01:11:57;101204.97;;;8.38;100.00
7832;BME280;3961;42.058;25.586;2024-02-21T01:14:23;101203.66;;;8.34;100.00
7832;BME280;3961;42.058;25.586;2024-02-21T01:16:48;101210.47;;;8.22;100.00
7832;BME280;3961;42.058;25.586;2024-02-21T01:19:13;101209.22;;;8.40;100.00
7832;BME280;3961;42.058;25.586;2024-02-21T01:21:39;101194.72;;;8.48;100.00
7832;BME280;3961;42.058;25.586;2024-02-21T01:24:04;101199.28;;;8.47;100.00
7832;BME280;3961;42.058;25.586;2024-02-21T01:26:30;101195.25;;;8.43;100.00
7832;BME280;3961;42.058;25.586;2024-02-21T01:28:55;101209.88;;;8.42;100.00
7832;BME280;3961;42.058;25.586;2024-02-21T01:31:21;101196.09;;;8.44;100.00
7832;BME280;3961;42.058;25.586;2024-02-21T01:33:46;101205.16;;;8.36;100.00
7832;BME280;3961;42.058;25.586;2024-02-21T01:36:12;101202.72;;;8.41;100.00
7832;BME280;3961;42.058;25.586;2024-02-21T01:38:37;101191.25;;;8.31;100.00
7832;BME280;3961;42.058;25.586;2024-02-21T01:41:03;101197.84;;;8.37;100.00
7832;BME280;3961;42.058;25.586;2024-02-21T01:43:28;101192.25;;;8.38;100.00
7832;BME280;3961;42.058;25.586;2024-02-21T01:45:57;101190.41;;;8.31;100.00
7832;BME280;3961;42.058;25.586;2024-02-21T01:48:23;101190.53;;;8.37;100.00
7832;BME280;3961;42.058;25.586;2024-02-21T01:50:50;101185.34;;;8.20;100.00
7832;BME280;3961;42.058;25.586;2024-02-21T01:53:22;101166.00;;;8.23;100.00
7832;BME280;3961;42.058;25.586;2024-02-21T01:55:48;101172.28;;;8.23;100.00
7832;BME280;3961;42.058;25.586;2024-02-21T01:58:18;101173.56;;;8.35;100.00
7832;BME280;3961;42.058;25.586;2024-02-21T02:00:46;101182.97;;;8.25;100.00
7832;BME280;3961;42.058;25.586;2024-02-21T02:03:12;101183.69;;;8.19;100.00
7832;BME280;3961;42.058;25.586;2024-02-21T02:05:45;101147.41;;;8.12;100.00
7832;BME280;3961;42.058;25.586;2024-02-21T02:08:13;101178.19;;;8.27;100.00
7832;BME280;3961;42.058;25.586;2024-02-21T02:10:40;101189.34;;;8.40;100.00
7832;BME280;3961;42.058;25.586;2024-02-21T02:13:06;101191.56;;;8.36;100.00
7832;BME280;3961;42.058;25.586;2024-02-21T02:15:39;101183.78;;;8.33;100.00
7832;BME280;3961;42.058;25.586;2024-02-21T02:18:04;101175.84;;;8.24;100.00
7832;BME280;3961;42.058;25.586;2024-02-21T02:20:30;101193.44;;;8.36;100.00
7832;BME280;3961;42.058;25.586;2024-02-21T02:22:55;101183.97;;;8.32;100.00
7832;BME280;3961;42.058;25.586;2024-02-21T02:25:21;101183.78;;;8.25;100.00
7832;BME280;3961;42.058;25.586;2024-02-21T02:27:47;101184.31;;;8.29;100.00
7832;BME280;3961;42.058;25.586;2024-02-21T02:30:12;101193.97;;;8.31;100.00
7832;BME280;3961;42.058;25.586;2024-02-21T02:32:38;101183.16;;;8.23;100.00
7832;BME280;3961;42.058;25.586;2024-02-21T02:35:04;101192.16;;;8.24;100.00
7832;BME280;3961;42.058;25.586;2024-02-21T02:37:29;101189.06;;;8.27;100.00
7832;BME280;3961;42.058;25.586;2024-02-21T02:39:55;101182.28;;;8.23;100.00
7832;BME280;3961;42.058;25.586;2024-02-21T02:42:20;101183.31;;;8.22;100.00
7832;BME280;3961;42.058;25.586;2024-02-21T02:44:46;101180.84;;;8.12;100.00
7832;BME280;3961;42.058;25.586;2024-02-21T02:47:11;101187.59;;;8.16;100.00
7832;BME280;3961;42.058;25.586;2024-02-21T02:49:37;101190.38;;;8.08;100.00
7832;BME280;3961;42.058;25.586;2024-02-21T02:52:03;101182.69;;;8.12;100.00
7832;BME280;3961;42.058;25.586;2024-02-21T02:54:28;101182.03;;;8.10;100.00
7832;BME280;3961;42.058;25.586;2024-02-21T02:56:54;101186.28;;;8.04;100.00
7832;BME280;3961;42.058;25.586;2024-02-21T02:59:19;101183.94;;;8.01;100.00
7832;BME280;3961;42.058;25.586;2024-02-21T03:01:45;101180.22;;;8.02;100.00
7832;BME280;3961;42.058;25.586;2024-02-21T03:04:10;101175.19;;;7.91;100.00
7832;BME280;3961;42.058;25.586;2024-02-21T03:06:35;101183.09;;;8.00;100.00
7832;BME280;3961;42.058;25.586;2024-02-21T03:09:01;101140.53;;;7.70;100.00
7832;BME280;3961;42.058;25.586;2024-02-21T03:11:27;101186.34;;;7.96;100.00
7832;BME280;3961;42.058;25.586;2024-02-21T03:13:55;101190.16;;;7.87;100.00
7832;BME280;3961;42.058;25.586;2024-02-21T03:16:22;101190.31;;;7.85;100.00
7832;BME280;3961;42.058;25.586;2024-02-21T03:18:47;101187.66;;;7.77;100.00
7832;BME280;3961;42.058;25.586;2024-02-21T03:21:13;101185.75;;;7.86;100.00
7832;BME280;3961;42.058;25.586;2024-02-21T03:23:39;101176.22;;;7.90;100.00
7832;BME280;3961;42.058;25.586;2024-02-21T03:26:04;101179.00;;;7.74;100.00
7832;BME280;3961;42.058;25.586;2024-02-21T03:28:30;101182.78;;;7.64;100.00
7832;BME280;3961;42.058;25.586;2024-02-21T03:30:55;101185.13;;;7.68;100.00
7832;BME280;3961;42.058;25.586;2024-02-21T03:33:21;101173.97;;;7.62;100.00
7832;BME280;3961;42.058;25.586;2024-02-21T03:35:48;101164.84;;;7.55;100.00
7832;BME280;3961;42.058;25.586;2024-02-21T03:38:13;101184.09;;;7.77;100.00
7832;BME280;3961;42.058;25.586;2024-02-21T03:40:38;101185.75;;;7.86;100.00
7832;BME280;3961;42.058;25.586;2024-02-21T03:43:04;101187.66;;;7.77;100.00
7832;BME280;3961;42.058;25.586;2024-02-21T03:45:29;101183.41;;;7.75;100.00
7832;BME280;3961;42.058;25.586;2024-02-21T03:47:55;101188.78;;;7.83;100.00
7832;BME280;3961;42.058;25.586;2024-02-21T03:50:21;101185.56;;;7.87;100.00
7832;BME280;3961;42.058;25.586;2024-02-21T03:52:46;101192.34;;;7.83;100.00
7832;BME280;3961;42.058;25.586;2024-02-21T03:55:11;101176.34;;;7.66;100.00
7832;BME280;3961;42.058;25.586;2024-02-21T03:57:37;101193.09;;;7.69;100.00
7832;BME280;3961;42.058;25.586;2024-02-21T04:00:04;101189.53;;;7.69;100.00
7832;BME280;3961;42.058;25.586;2024-02-21T04:02:31;101189.38;;;7.70;100.00
7832;BME280;3961;42.058;25.586;2024-02-21T04:04:56;101190.44;;;7.61;100.00
7832;BME280;3961;42.058;25.586;2024-02-21T04:07:21;101186.81;;;7.69;100.00
7832;BME280;3961;42.058;25.586;2024-02-21T04:09:47;101188.16;;;7.73;100.00
7832;BME280;3961;42.058;25.586;2024-02-21T04:12:12;101190.03;;;7.72;100.00
7832;BME280;3961;42.058;25.586;2024-02-21T04:14:38;101197.53;;;7.62;100.00
7832;BME280;3961;42.058;25.586;2024-02-21T04:17:04;101202.31;;;7.60;100.00
7832;BME280;3961;42.058;25.586;2024-02-21T04:19:30;101191.78;;;7.65;100.00
7832;BME280;3961;42.058;25.586;2024-02-21T04:21:56;101193.47;;;7.58;100.00
7832;BME280;3961;42.058;25.586;2024-02-21T04:24:21;101189.28;;;7.47;100.00
7832;BME280;3961;42.058;25.586;2024-02-21T04:26:47;101205.72;;;7.54;100.00
7832;BME280;3961;42.058;25.586;2024-02-21T04:29:12;101203.53;;;7.49;100.00
7832;BME280;3961;42.058;25.586;2024-02-21T04:31:38;101203.22;;;7.36;100.00
7832;BME280;3961;42.058;25.586;2024-02-21T04:34:06;101204.22;;;7.35;100.00
7832;BME280;3961;42.058;25.586;2024-02-21T04:36:31;101183.41;;;7.28;100.00
7832;BME280;3961;42.058;25.586;2024-02-21T04:38:57;101200.34;;;7.30;100.00
7832;BME280;3961;42.058;25.586;2024-02-21T04:41:22;101201.19;;;7.30;100.00
7832;BME280;3961;42.058;25.586;2024-02-21T04:43:48;101189.84;;;7.27;100.00
7832;BME280;3961;42.058;25.586;2024-02-21T04:46:13;101203.09;;;7.21;100.00
7832;BME280;3961;42.058;25.586;2024-02-21T04:48:39;101205.44;;;7.33;100.00
7832;BME280;3961;42.058;25.586;2024-02-21T04:51:04;101201.38;;;7.20;100.00
7832;BME280;3961;42.058;25.586;2024-02-21T04:53:30;101203.16;;;6.81;100.00
7832;BME280;3961;42.058;25.586;2024-02-21T04:55:55;101196.88;;;6.64;100.00
7832;BME280;3961;42.058;25.586;2024-02-21T04:58:21;101206.19;;;6.78;100.00
7832;BME280;3961;42.058;25.586;2024-02-21T05:00:46;101203.50;;;6.70;100.00
7832;BME280;3961;42.058;25.586;2024-02-21T05:03:12;101217.84;;;6.38;100.00
7832;BME280;3961;42.058;25.586;2024-02-21T05:05:37;101217.19;;;6.44;100.00
7832;BME280;3961;42.058;25.586;2024-02-21T05:08:03;101205.84;;;6.49;100.00
7832;BME280;3961;42.058;25.586;2024-02-21T05:10:29;101209.41;;;6.57;100.00
7832;BME280;3961;42.058;25.586;2024-02-21T05:12:54;101212.97;;;6.58;100.00
7832;BME280;3961;42.058;25.586;2024-02-21T05:15:19;101220.94;;;6.75;100.00
7832;BME280;3961;42.058;25.586;2024-02-21T05:17:45;101221.25;;;6.72;100.00
7832;BME280;3961;42.058;25.586;2024-02-21T05:20:10;101225.34;;;6.76;100.00
7832;BME280;3961;42.058;25.586;2024-02-21T05:22:36;101231.09;;;6.73;100.00
7832;BME280;3961;42.058;25.586;2024-02-21T05:25:01;101241.59;;;6.85;100.00
7832;BME280;3961;42.058;25.586;2024-02-21T05:27:27;101234.63;;;6.82;100.00
7832;BME280;3961;42.058;25.586;2024-02-21T05:29:53;101239.03;;;6.83;100.00
7832;BME280;3961;42.058;25.586;2024-02-21T05:32:19;101241.09;;;6.81;100.00
7832;BME280;3961;42.058;25.586;2024-02-21T05:34:44;101239.22;;;6.82;100.00
7832;BME280;3961;42.058;25.586;2024-02-21T05:37:09;101238.88;;;6.85;100.00
7832;BME280;3961;42.058;25.586;2024-02-21T05:39:35;101247.16;;;6.83;100.00
7832;BME280;3961;42.058;25.586;2024-02-21T05:42:01;101240.41;;;6.79;100.00
7832;BME280;3961;42.058;25.586;2024-02-21T05:44:26;101247.84;;;6.85;100.00
7832;BME280;3961;42.058;25.586;2024-02-21T05:46:52;101245.31;;;6.92;100.00
7832;BME280;3961;42.058;25.586;2024-02-21T05:49:17;101248.53;;;6.95;100.00
7832;BME280;3961;42.058;25.586;2024-02-21T05:51:43;101250.91;;;7.06;100.00
7832;BME280;3961;42.058;25.586;2024-02-21T05:54:08;101244.81;;;7.12;100.00
7832;BME280;3961;42.058;25.586;2024-02-21T05:56:34;101206.31;;;7.09;100.00
7832;BME280;3961;42.058;25.586;2024-02-21T05:58:59;101228.16;;;7.32;100.00
7832;BME280;3961;42.058;25.586;2024-02-21T06:01:25;101254.50;;;7.62;100.00
7832;BME280;3961;42.058;25.586;2024-02-21T06:03:50;101255.22;;;7.56;100.00
7832;BME280;3961;42.058;25.586;2024-02-21T06:06:16;101258.41;;;7.68;100.00
7832;BME280;3961;42.058;25.586;2024-02-21T06:08:41;101260.94;;;7.69;100.00
7832;BME280;3961;42.058;25.586;2024-02-21T06:11:07;101263.25;;;7.33;100.00
7832;BME280;3961;42.058;25.586;2024-02-21T06:13:32;101264.63;;;7.05;100.00
7832;BME280;3961;42.058;25.586;2024-02-21T06:15:57;101258.31;;;6.56;100.00
7832;BME280;3961;42.058;25.586;2024-02-21T06:18:23;101253.88;;;6.30;100.00
7832;BME280;3961;42.058;25.586;2024-02-21T06:20:49;101267.94;;;6.34;100.00
7832;BME280;3961;42.058;25.586;2024-02-21T06:23:16;101275.72;;;6.37;100.00
7832;BME280;3961;42.058;25.586;2024-02-21T06:25:42;101222.53;;;6.20;100.00
7832;BME280;3961;42.058;25.586;2024-02-21T06:28:08;101282.56;;;6.65;100.00
7832;BME280;3961;42.058;25.586;2024-02-21T06:30:33;101280.88;;;6.64;100.00
7832;BME280;3961;42.058;25.586;2024-02-21T06:32:59;101280.38;;;6.85;100.00
7832;BME280;3961;42.058;25.586;2024-02-21T06:35:25;101280.91;;;7.13;100.00
7832;BME280;3961;42.058;25.586;2024-02-21T06:37:51;101283.22;;;7.40;100.00
7832;BME280;3961;42.058;25.586;2024-02-21T06:40:17;101283.53;;;7.53;100.00
7832;BME280;3961;42.058;25.586;2024-02-21T06:42:43;101291.16;;;7.58;100.00
7832;BME280;3961;42.058;25.586;2024-02-21T06:45:08;101289.75;;;7.78;100.00
7832;BME280;3961;42.058;25.586;2024-02-21T06:47:34;101285.50;;;7.84;100.00
7832;BME280;3961;42.058;25.586;2024-02-21T06:49:59;101288.72;;;7.79;100.00
7832;BME280;3961;42.058;25.586;2024-02-21T06:52:25;101284.41;;;7.54;100.00
7832;BME280;3961;42.058;25.586;2024-02-21T06:54:50;101275.47;;;7.84;100.00
7832;BME280;3961;42.058;25.586;2024-02-21T06:57:16;101286.44;;;10.10;100.00
7832;BME280;3961;42.058;25.586;2024-02-21T06:59:42;101284.09;;;9.63;100.00
7832;BME280;3961;42.058;25.586;2024-02-21T07:02:07;101293.97;;;8.67;100.00
7832;BME280;3961;42.058;25.586;2024-02-21T07:04:33;101279.50;;;8.35;100.00
7832;BME280;3961;42.058;25.586;2024-02-21T07:06:59;101289.38;;;7.97;100.00
7832;BME280;3961;42.058;25.586;2024-02-21T07:09:24;101282.75;;;7.92;100.00
7832;BME280;3961;42.058;25.586;2024-02-21T07:11:50;101286.69;;;8.20;100.00
7832;BME280;3961;42.058;25.586;2024-02-21T07:14:15;101286.75;;;8.51;100.00
7832;BME280;3961;42.058;25.586;2024-02-21T07:16:41;101285.59;;;8.68;100.00
7832;BME280;3961;42.058;25.586;2024-02-21T07:19:06;101259.81;;;8.64;100.00
7832;BME280;3961;42.058;25.586;2024-02-21T07:21:32;101291.34;;;8.96;100.00
7832;BME280;3961;42.058;25.586;2024-02-21T07:23:57;101287.31;;;8.92;100.00
7832;BME280;3961;42.058;25.586;2024-02-21T07:26:23;101288.28;;;8.76;100.00
7832;BME280;3961;42.058;25.586;2024-02-21T07:28:48;101290.69;;;8.94;100.00
7832;BME280;3961;42.058;25.586;2024-02-21T07:31:14;101290.34;;;8.97;100.00
7832;BME280;3961;42.058;25.586;2024-02-21T07:33:39;101297.25;;;9.00;100.00
7832;BME280;3961;42.058;25.586;2024-02-21T07:36:07;101294.13;;;9.48;100.00
7832;BME280;3961;42.058;25.586;2024-02-21T07:38:33;101287.25;;;9.52;100.00
7832;BME280;3961;42.058;25.586;2024-02-21T07:40:59;101302.34;;;9.92;100.00
7832;BME280;3961;42.058;25.586;2024-02-21T07:43:24;101296.78;;;9.71;100.00
7832;BME280;3961;42.058;25.586;2024-02-21T07:45:52;101301.78;;;9.67;100.00
7832;BME280;3961;42.058;25.586;2024-02-21T07:48:18;101294.41;;;9.68;100.00
7832;BME280;3961;42.058;25.586;2024-02-21T07:50:44;101282.50;;;9.69;100.00
7832;BME280;3961;42.058;25.586;2024-02-21T07:53:10;101300.34;;;9.86;100.00
7832;BME280;3961;42.058;25.586;2024-02-21T07:55:35;101299.63;;;9.78;100.00
7832;BME280;3961;42.058;25.586;2024-02-21T07:58:01;101302.50;;;9.61;100.00
7832;BME280;3961;42.058;25.586;2024-02-21T08:00:26;101302.28;;;9.48;100.00
7832;BME280;3961;42.058;25.586;2024-02-21T08:02:52;101298.38;;;9.65;100.00
7832;BME280;3961;42.058;25.586;2024-02-21T08:05:17;101293.59;;;9.82;100.00
7832;BME280;3961;42.058;25.586;2024-02-21T08:07:43;101282.41;;;9.92;100.00
7832;BME280;3961;42.058;25.586;2024-02-21T08:10:09;101293.59;;;10.26;100.00
7832;BME280;3961;42.058;25.586;2024-02-21T08:12:35;101297.66;;;10.66;100.00
7832;BME280;3961;42.058;25.586;2024-02-21T08:15:01;101304.94;;;11.01;100.00
7832;BME280;3961;42.058;25.586;2024-02-21T08:17:28;101281.78;;;11.40;99.42
7832;BME280;3961;42.058;25.586;2024-02-21T08:19:54;101292.97;;;11.73;99.44
7832;BME280;3961;42.058;25.586;2024-02-21T08:22:19;101293.75;;;12.01;99.22
7832;BME280;3961;42.058;25.586;2024-02-21T08:24:45;101289.22;;;12.15;98.23
7832;BME280;3961;42.058;25.586;2024-02-21T08:27:10;101295.38;;;12.30;95.63
7832;BME280;3961;42.058;25.586;2024-02-21T08:29:36;101295.19;;;12.38;95.46
7832;BME280;3961;42.058;25.586;2024-02-21T08:32:01;101297.47;;;12.28;94.81
7832;BME280;3961;42.058;25.586;2024-02-21T08:34:27;101298.38;;;12.42;92.86
7832;BME280;3961;42.058;25.586;2024-02-21T08:36:54;101293.16;;;12.53;94.19
7832;BME280;3961;42.058;25.586;2024-02-21T08:39:20;101300.41;;;12.87;92.00
7832;BME280;3961;42.058;25.586;2024-02-21T08:41:46;101297.53;;;13.28;88.24
7832;BME280;3961;42.058;25.586;2024-02-21T08:44:11;101303.88;;;13.29;87.68
7832;BME280;3961;42.058;25.586;2024-02-21T08:46:37;101300.72;;;13.45;86.36
7832;BME280;3961;42.058;25.586;2024-02-21T08:49:06;101306.81;;;13.53;84.13
7832;BME280;3961;42.058;25.586;2024-02-21T08:51:31;101301.13;;;13.62;83.09
7832;BME280;3961;42.058;25.586;2024-02-21T08:53:57;101307.63;;;13.80;82.08
7832;BME280;3961;42.058;25.586;2024-02-21T08:56:24;101294.97;;;13.92;83.62
7832;BME280;3961;42.058;25.586;2024-02-21T08:58:49;101308.06;;;13.84;78.51
7832;BME280;3961;42.058;25.586;2024-02-21T09:01:15;101320.75;;;13.32;81.24
7832;BME280;3961;42.058;25.586;2024-02-21T09:03:40;101311.25;;;13.35;82.17
7832;BME280;3961;42.058;25.586;2024-02-21T09:06:07;101301.09;;;13.09;80.44
7832;BME280;3961;42.058;25.586;2024-02-21T09:08:33;101310.41;;;13.41;82.50
7832;BME280;3961;42.058;25.586;2024-02-21T09:11:01;101295.66;;;13.68;80.32
7832;BME280;3961;42.058;25.586;2024-02-21T09:13:27;101288.69;;;13.79;79.48
7832;BME280;3961;42.058;25.586;2024-02-21T09:15:53;101307.56;;;14.13;77.20
7832;BME280;3961;42.058;25.586;2024-02-21T09:18:18;101292.78;;;14.21;76.32
7832;BME280;3961;42.058;25.586;2024-02-21T09:20:44;101287.38;;;13.94;74.44
7832;BME280;3961;42.058;25.586;2024-02-21T09:23:10;101293.84;;;14.13;73.41
7832;BME280;3961;42.058;25.586;2024-02-21T09:25:35;101294.84;;;13.48;75.63
7832;BME280;3961;42.058;25.586;2024-02-21T09:28:02;101286.59;;;13.54;76.23
7832;BME280;3961;42.058;25.586;2024-02-21T09:30:28;101280.84;;;13.89;78.70
7832;BME280;3961;42.058;25.586;2024-02-21T09:32:54;101301.69;;;14.10;72.36
7832;BME280;3961;42.058;25.586;2024-02-21T09:35:20;101297.03;;;14.17;71.92
7832;BME280;3961;42.058;25.586;2024-02-21T09:37:48;101296.31;;;14.41;71.78
7832;BME280;3961;42.058;25.586;2024-02-21T09:40:17;101278.91;;;14.60;71.08
7832;BME280;3961;42.058;25.586;2024-02-21T09:42:43;101295.88;;;14.89;70.71
7832;BME280;3961;42.058;25.586;2024-02-21T09:48:40;101288.09;;;14.86;70.49
7832;BME280;3961;42.058;25.586;2024-02-21T09:50:37;101286.06;;;14.99;69.78
7832;BME280;3961;42.058;25.586;2024-02-21T09:53:06;101285.38;;;15.10;67.99
7832;BME280;3961;42.058;25.586;2024-02-21T09:55:33;101277.66;;;14.94;69.20
7832;BME280;3961;42.058;25.586;2024-02-21T09:58:01;101264.91;;;15.06;67.83
7832;BME280;3961;42.058;25.586;2024-02-21T10:00:26;101274.06;;;15.25;66.78
7832;BME280;3961;42.058;25.586;2024-02-21T10:02:53;101271.81;;;15.40;65.31
7832;BME280;3961;42.058;25.586;2024-02-21T10:05:19;101267.41;;;15.64;67.20
7832;BME280;3961;42.058;25.586;2024-02-21T10:07:44;101268.69;;;15.61;64.28
7832;BME280;3961;42.058;25.586;2024-02-21T10:10:10;101267.16;;;15.66;64.42
7832;BME280;3961;42.058;25.586;2024-02-21T10:12:35;101257.75;;;15.55;61.33
7832;BME280;3961;42.058;25.586;2024-02-21T10:15:02;101259.22;;;15.76;63.06
7832;BME280;3961;42.058;25.586;2024-02-21T10:17:28;101237.78;;;15.66;61.07
7832;BME280;3961;42.058;25.586;2024-02-21T10:19:53;101247.53;;;15.62;60.23
7832;BME280;3961;42.058;25.586;2024-02-21T10:22:19;101248.38;;;15.62;62.49
7832;BME280;3961;42.058;25.586;2024-02-21T10:24:46;101236.66;;;15.24;63.37
7832;BME280;3961;42.058;25.586;2024-02-21T10:27:12;101229.72;;;15.21;63.21
7832;BME280;3961;42.058;25.586;2024-02-21T10:29:38;101223.41;;;15.39;60.44
7832;BME280;3961;42.058;25.586;2024-02-21T10:32:11;101228.41;;;15.74;59.95
7832;BME280;3961;42.058;25.586;2024-02-21T10:34:38;101220.38;;;15.90;60.35
7832;BME280;3961;42.058;25.586;2024-02-21T10:37:05;101218.06;;;16.24;60.06
7832;BME280;3961;42.058;25.586;2024-02-21T10:39:32;101214.38;;;16.30;56.52
7832;BME280;3961;42.058;25.586;2024-02-21T10:42:00;101211.59;;;16.48;57.09
7832;BME280;3961;42.058;25.586;2024-02-21T10:44:30;101209.06;;;16.65;57.04
7832;BME280;3961;42.058;25.586;2024-02-21T10:46:57;101201.78;;;16.70;53.83
7832;BME280;3961;42.058;25.586;2024-02-21T10:49:24;101187.31;;;16.75;52.62
7832;BME280;3961;42.058;25.586;2024-02-21T10:54:45;101179.47;;;17.02;53.12
7832;BME280;3961;42.058;25.586;2024-02-21T10:57:13;101176.97;;;17.12;54.73
7832;BME280;3961;42.058;25.586;2024-02-21T10:59:39;101117.38;;;16.34;53.25
7832;BME280;3961;42.058;25.586;2024-02-21T11:02:05;101164.06;;;16.71;54.78
7832;BME280;3961;42.058;25.586;2024-02-21T11:04:31;101164.91;;;16.71;55.00
7832;BME280;3961;42.058;25.586;2024-02-21T11:07:01;101164.75;;;16.66;55.20
7832;BME280;3961;42.058;25.586;2024-02-21T11:09:32;101164.19;;;16.46;52.44
7832;BME280;3961;42.058;25.586;2024-02-21T11:11:58;101172.75;;;16.26;53.58
7832;BME280;3961;42.058;25.586;2024-02-21T11:14:26;101153.41;;;15.85;54.79
7832;BME280;3961;42.058;25.586;2024-02-21T11:16:52;101145.31;;;16.79;72.72
7832;BME280;3961;42.058;25.586;2024-02-21T11:19:22;101137.56;;;15.98;54.74
7832;BME280;3961;42.058;25.586;2024-02-21T11:21:53;101132.63;;;15.89;52.60
7832;BME280;3961;42.058;25.586;2024-02-21T11:24:34;101137.69;;;15.55;53.71
7832;BME280;3961;42.058;25.586;2024-02-21T11:27:09;101129.00;;;14.66;56.52
7832;BME280;3961;42.058;25.586;2024-02-21T11:29:44;101115.50;;;14.33;57.97
7832;BME280;3961;42.058;25.586;2024-02-21T11:32:11;101129.28;;;14.26;57.63
7832;BME280;3961;42.058;25.586;2024-02-21T11:34:37;101120.09;;;14.46;57.08
7832;BME280;3961;42.058;25.586;2024-02-21T11:37:13;101123.38;;;14.54;56.47
7832;BME280;3961;42.058;25.586;2024-02-21T11:39:41;101101.78;;;14.33;56.43
7832;BME280;3961;42.058;25.586;2024-02-21T11:42:07;101121.59;;;14.35;56.99
7832;BME280;3961;42.058;25.586;2024-02-21T11:44:37;101110.28;;;14.25;58.75
7832;BME280;3961;42.058;25.586;2024-02-21T11:47:08;101124.13;;;14.05;59.73
7832;BME280;3961;42.058;25.586;2024-02-21T11:49:38;101117.09;;;13.71;60.22
7832;BME280;3961;42.058;25.586;2024-02-21T11:52:07;101109.81;;;13.52;59.69
7832;BME280;3961;42.058;25.586;2024-02-21T11:54:33;101119.34;;;13.36;59.93
7832;BME280;3961;42.058;25.586;2024-02-21T11:57:00;101106.22;;;13.51;60.91
7832;BME280;3961;42.058;25.586;2024-02-21T11:59:26;101092.91;;;13.68;58.00
7832;BME280;3961;42.058;25.586;2024-02-21T12:01:52;101098.25;;;13.94;56.15
7832;BME280;3961;42.058;25.586;2024-02-21T12:04:19;101097.91;;;14.16;56.18
7832;BME280;3961;42.058;25.586;2024-02-21T12:06:45;101087.44;;;14.87;68.94
7832;BME280;3961;42.058;25.586;2024-02-21T12:09:17;101090.81;;;15.69;52.11
7832;BME280;3961;42.058;25.586;2024-02-21T12:11:43;101086.22;;;15.62;50.10
7832;BME280;3961;42.058;25.586;2024-02-21T12:14:10;101077.81;;;16.05;50.58
7832;BME280;3961;42.058;25.586;2024-02-21T12:16:36;101068.50;;;16.48;50.02
7832;BME280;3961;42.058;25.586;2024-02-21T12:19:04;101077.41;;;16.73;47.79
7832;BME280;3961;42.058;25.586;2024-02-21T12:21:31;101072.28;;;16.65;48.50
7832;BME280;3961;42.058;25.586;2024-02-21T12:23:58;101071.72;;;16.57;48.42
7832;BME280;3961;42.058;25.586;2024-02-21T12:26:24;101079.97;;;16.57;48.19
7832;BME280;3961;42.058;25.586;2024-02-21T12:28:51;101068.94;;;16.86;50.85
7832;BME280;3961;42.058;25.586;2024-02-21T12:31:16;101073.78;;;17.43;52.18
7832;BME280;3961;42.058;25.586;2024-02-21T12:33:43;101071.50;;;17.91;47.78
7832;BME280;3961;42.058;25.586;2024-02-21T12:36:09;101068.38;;;18.16;51.41
7832;BME280;3961;42.058;25.586;2024-02-21T12:38:35;101062.75;;;18.56;48.64
7832;BME280;3961;42.058;25.586;2024-02-21T12:41:01;101065.72;;;18.66;46.19
7832;BME280;3961;42.058;25.586;2024-02-21T12:43:27;101065.72;;;18.66;44.84
7832;BME280;3961;42.058;25.586;2024-02-21T12:45:52;101047.03;;;19.28;44.47
7832;BME280;3961;42.058;25.586;2024-02-21T12:48:18;101048.00;;;19.39;40.47
7832;BME280;3961;42.058;25.586;2024-02-21T12:50:53;101058.88;;;18.40;42.23
7832;BME280;3961;42.058;25.586;2024-02-21T12:53:19;101058.16;;;18.45;44.06
7832;BME280;3961;42.058;25.586;2024-02-21T12:55:47;101043.31;;;17.89;41.52
7832;BME280;3961;42.058;25.586;2024-02-21T12:58:14;101048.31;;;18.21;44.54
7832;BME280;3961;42.058;25.586;2024-02-21T13:00:40;101054.63;;;17.24;39.09